EWG509 EGGW-EDNY
Flight info
| Callsign | EWG509 |
|---|---|
| Flight time | N/A |
| Altitude | 32000 |
| Route | DET7C DET Q70 ITVIP L10 DVR UL9 KONAN UL607 KOK M150 PITES DCT TITIX N850 TRA N491 ZUE ZUE1F |
| Aircraft | A319/M-SDE3FGHIRWY/LB1 |
Departure
| Time | 2026-04-30 15:04 |
|---|---|
| Airport | London Luton Airport (EGGW) |
Arrival
| Time | N/A |
|---|---|
| Airport | Bodensee Airport Friedrichshafen (EDNY) |
| Time | Latitude | Longitude | Altitude | Speed | Heading |
|---|---|---|---|---|---|
| 2026-04-30 14:50 | 51.87988 | -0.37864 | 534 ft | 0 kts | 127° |
| 2026-04-30 14:55 | 51.88010 | -0.37912 | 534 ft | 4 kts | 133° |
| 2026-04-30 14:56 | 51.88049 | -0.37898 | 534 ft | 4 kts | 218° |
| 2026-04-30 14:56 | 51.88057 | -0.37888 | 534 ft | 0 kts | 218° |
| 2026-04-30 14:59 | 51.88046 | -0.37902 | 534 ft | 5 kts | 218° |
| 2026-04-30 15:00 | 51.87872 | -0.38010 | 534 ft | 13 kts | 162° |
| 2026-04-30 15:00 | 51.87767 | -0.37792 | 534 ft | 14 kts | 115° |
| 2026-04-30 15:01 | 51.87658 | -0.37478 | 535 ft | 16 kts | 147° |
| 2026-04-30 15:01 | 51.87591 | -0.37453 | 536 ft | 14 kts | 178° |
| 2026-04-30 15:01 | 51.87470 | -0.37740 | 536 ft | 15 kts | 253° |
| 2026-04-30 15:02 | 51.87440 | -0.37906 | 536 ft | 16 kts | 254° |
| 2026-04-30 15:02 | 51.87385 | -0.38051 | 536 ft | 16 kts | 212° |
| 2026-04-30 15:03 | 51.87285 | -0.38115 | 532 ft | 9 kts | 185° |
| 2026-04-30 15:03 | 51.87249 | -0.38085 | 532 ft | 0 kts | 75° |
| 2026-04-30 15:04 | 51.87274 | -0.37929 | 535 ft | 47 kts | 75° |
| 2026-04-30 15:04 | 51.87950 | -0.34005 | 1332 ft | 145 kts | 79° |
| 2026-04-30 15:05 | 51.88767 | -0.29124 | 3033 ft | 175 kts | 81° |
| 2026-04-30 15:06 | 51.89475 | -0.24905 | 3867 ft | 212 kts | 83° |
| 2026-04-30 15:06 | 51.88463 | -0.20479 | 4985 ft | 226 kts | 143° |
| 2026-04-30 15:07 | 51.85501 | -0.18131 | 5017 ft | 243 kts | 156° |
| 2026-04-30 15:07 | 51.82395 | -0.15968 | 5078 ft | 243 kts | 155° |
| 2026-04-30 15:08 | 51.79288 | -0.13767 | 5082 ft | 244 kts | 155° |
| 2026-04-30 15:08 | 51.75135 | -0.09313 | 5077 ft | 247 kts | 120° |
| 2026-04-30 15:09 | 51.74444 | -0.03833 | 5073 ft | 252 kts | 101° |
| 2026-04-30 15:09 | 51.74017 | 0.01777 | 5062 ft | 252 kts | 101° |
| 2026-04-30 15:10 | 51.73586 | 0.07400 | 5030 ft | 253 kts | 101° |
| 2026-04-30 15:11 | 51.72701 | 0.18628 | 5031 ft | 253 kts | 101° |
| 2026-04-30 15:11 | 51.72166 | 0.24206 | 5029 ft | 249 kts | 111° |
| 2026-04-30 15:12 | 51.69122 | 0.29370 | 5031 ft | 245 kts | 153° |
| 2026-04-30 15:13 | 51.66063 | 0.31841 | 5017 ft | 246 kts | 152° |
| 2026-04-30 15:14 | 51.59966 | 0.36795 | 5030 ft | 246 kts | 152° |
| 2026-04-30 15:14 | 51.55386 | 0.40513 | 5030 ft | 246 kts | 152° |
| 2026-04-30 15:16 | 51.47720 | 0.46642 | 5031 ft | 247 kts | 153° |
| 2026-04-30 15:17 | 51.41502 | 0.51340 | 5029 ft | 247 kts | 153° |
| 2026-04-30 15:18 | 51.33745 | 0.57192 | 5006 ft | 246 kts | 153° |
| 2026-04-30 15:19 | 51.30353 | 0.62924 | 5323 ft | 259 kts | 103° |